Cherokee — 9HBC7 — position and weather

sailwx.info

Track history (hours):
 
Tides and Currents Weather Stations Pressure Air Temp Water Temp Dewpoint Dewpoint Depression Visibility Wind Speed Wind Dir Waves Ship Positions

Cherokee

Last reported at 2015-Aug-28 08:33 UTC. Time now 2015-Aug-28 09:33 UTC.
Position N 36°24' E 027°11'.

Length 140 m; draft 3.7 m.

Type: Cargo ship. MMSI: 215059000.

Date/timePositionNaut miles runAvg speedWind from/ knotsBaromVisibWave heightAir tempDewpointWater temp
2015-Aug-28 08:33N 36°24' E 027°11'  
2015-Aug-21 09:32N 34°51' E 028°02'8 7.6
2015-Aug-21 08:32N 34°58' E 027°58'57 8.1
2015-Aug-21 01:31N 35°49' E 027°28'8 8.4
2015-Aug-21 00:33N 35°56' E 027°23'34 8.2
2015-Aug-20 20:24N 36°23' E 026°56'24 8.3
2015-Aug-20 17:33N 36°44' E 026°45'16 8.0
2015-Aug-20 15:33N 36°59' E 026°37'8 7.7
2015-Aug-20 14:33N 37°06' E 026°33'8 7.7
2015-Aug-20 13:33N 37°13' E 026°29'8 7.5
2015-Aug-20 12:32N 37°20' E 026°25'9 7.8
2015-Aug-20 11:25N 37°28' E 026°21'7 7.4
2015-Aug-20 10:30N 37°35' E 026°22'234 6.5
2015-Aug-18 22:22N 40°57' E 028°55'2 0.4
2015-Aug-18 16:16N 40°59' E 028°56'2 2.8
2015-Aug-18 15:33N 40°59' E 028°59'  
Track history (hours):
 
Tides and Currents Weather Stations Pressure Air Temp Water Temp Dewpoint Dewpoint Depression Visibility Wind Speed Wind Dir Waves Ship Positions

Cherokee

Last reported at 2015-Aug-28 08:33 UTC. Time now 2015-Aug-28 09:33 UTC.
Position N 36°24' E 027°11'.

Length 140 m; draft 3.7 m.

Type: Cargo ship. MMSI: 215059000.

Date/timePositionNaut miles runAvg speedWind from/ knotsBaromVisibWave heightAir tempDewpointWater temp
2015-Aug-28 08:33N 36°24' E 027°11'  
2015-Aug-21 09:32N 34°51' E 028°02'8 7.6
2015-Aug-21 08:32N 34°58' E 027°58'57 8.1
2015-Aug-21 01:31N 35°49' E 027°28'8 8.4
2015-Aug-21 00:33N 35°56' E 027°23'34 8.2
2015-Aug-20 20:24N 36°23' E 026°56'24 8.3
2015-Aug-20 17:33N 36°44' E 026°45'16 8.0
2015-Aug-20 15:33N 36°59' E 026°37'8 7.7
2015-Aug-20 14:33N 37°06' E 026°33'8 7.7
2015-Aug-20 13:33N 37°13' E 026°29'8 7.5
2015-Aug-20 12:32N 37°20' E 026°25'9 7.8
2015-Aug-20 11:25N 37°28' E 026°21'7 7.4
2015-Aug-20 10:30N 37°35' E 026°22'234 6.5
2015-Aug-18 22:22N 40°57' E 028°55'2 0.4
2015-Aug-18 16:16N 40°59' E 028°56'2 2.8
2015-Aug-18 15:33N 40°59' E 028°59'  

Dump ship's entire track history